createdAt,value
2017-10-07T00:04:05.956Z,75.53
2017-10-07T00:09:07.892Z,75.51
2017-10-07T00:14:09.946Z,75.50
2017-10-07T00:19:11.953Z,75.62
2017-10-07T00:24:13.983Z,75.47
2017-10-07T00:29:16.032Z,75.39
2017-10-07T00:34:18.606Z,75.04
2017-10-07T00:39:21.199Z,75.60
2017-10-07T00:44:23.827Z,76.08
2017-10-07T00:49:25.852Z,76.02
2017-10-07T00:54:28.744Z,76.19
2017-10-07T00:59:30.853Z,76.16
2017-10-07T01:04:33.421Z,77.05
2017-10-07T01:09:36.496Z,77.13
2017-10-07T01:14:39.428Z,77.07
2017-10-07T01:19:41.776Z,77.16
2017-10-07T01:24:43.821Z,77.15
2017-10-07T01:29:46.411Z,76.68
2017-10-07T01:34:49.889Z,76.58
2017-10-07T01:39:53.896Z,76.59
2017-10-07T01:44:57.561Z,76.42
2017-10-07T01:50:00.242Z,76.13
2017-10-07T01:55:05.185Z,76.01
2017-10-07T02:00:11.962Z,76.35
2017-10-07T02:05:19.262Z,76.22
2017-10-07T02:10:22.829Z,76.74
2017-10-07T02:15:32.165Z,76.85
2017-10-07T02:20:36.950Z,76.86
2017-10-07T02:25:42.909Z,76.21
2017-10-07T02:30:49.968Z,75.87
2017-10-07T02:35:53.165Z,75.88
2017-10-07T02:41:00.958Z,75.41
2017-10-07T02:46:08.469Z,75.20
2017-10-07T02:51:16.368Z,74.87
2017-10-07T02:56:19.378Z,74.86
2017-10-07T03:01:26.800Z,74.87
2017-10-07T03:06:29.485Z,74.65
2017-10-07T03:11:32.138Z,74.73
2017-10-07T03:16:34.791Z,74.54
2017-10-07T03:21:36.703Z,74.55
2017-10-07T03:26:38.637Z,74.53
2017-10-07T03:31:40.539Z,74.25
2017-10-07T03:36:42.474Z,74.25
2017-10-07T03:41:44.476Z,75.01
2017-10-07T03:46:46.388Z,75.29
2017-10-07T03:51:48.328Z,76.00
2017-10-07T03:56:50.223Z,76.23
2017-10-07T04:01:56.638Z,76.89
2017-10-07T04:06:58.763Z,77.07
2017-10-07T04:12:00.744Z,77.25
2017-10-07T04:17:02.749Z,76.87
2017-10-07T04:22:04.699Z,76.75
2017-10-07T04:27:06.611Z,76.61
2017-10-07T04:32:08.540Z,76.65
2017-10-07T04:37:10.511Z,76.63
2017-10-07T04:42:12.562Z,76.79
2017-10-07T04:47:14.571Z,77.02
2017-10-07T04:52:17.339Z,76.67
2017-10-07T04:57:20.023Z,76.72
2017-10-07T05:02:22.047Z,76.73
2017-10-07T05:07:24.725Z,76.59
2017-10-07T05:12:26.705Z,76.58
2017-10-07T05:17:28.699Z,76.31
2017-10-07T05:22:33.431Z,76.32
2017-10-07T05:27:45.698Z,75.66
2017-10-07T05:32:58.345Z,75.44
2017-10-07T05:38:08.939Z,75.42
2017-10-07T05:43:19.510Z,75.37
2017-10-07T05:48:22.537Z,74.98
2017-10-07T05:53:37.665Z,74.98
2017-10-07T05:58:40.546Z,74.39
2017-10-07T06:03:42.444Z,74.04
2017-10-07T06:08:45.115Z,73.58
2017-10-07T06:13:47.792Z,72.70
2017-10-07T06:18:49.864Z,72.62
2017-10-07T06:23:51.858Z,72.85
2017-10-07T06:28:53.878Z,72.89
2017-10-07T06:33:55.875Z,72.53
2017-10-07T06:38:58.080Z,72.40
2017-10-07T06:44:00.068Z,71.87
2017-10-07T06:49:02.006Z,71.69
2017-10-07T06:54:04.779Z,71.67
2017-10-07T06:59:06.729Z,71.71
2017-10-07T07:04:09.417Z,70.97
2017-10-07T07:09:11.322Z,70.33
2017-10-07T07:14:13.401Z,69.70
2017-10-07T07:19:15.430Z,69.56
2017-10-07T07:24:17.379Z,69.94
2017-10-07T07:29:20.081Z,69.76
2017-10-07T07:34:22.139Z,69.67
2017-10-07T07:39:24.057Z,70.04
2017-10-07T07:44:27.877Z,69.79
2017-10-07T07:49:30.600Z,69.41
2017-10-07T07:54:33.309Z,68.65
2017-10-07T07:59:35.367Z,67.54
2017-10-07T08:04:37.277Z,66.54
2017-10-07T08:09:39.942Z,65.82
2017-10-07T08:14:42.393Z,65.14
2017-10-07T08:19:44.947Z,65.49
2017-10-07T08:24:47.723Z,65.66
2017-10-07T08:29:49.653Z,65.75
2017-10-07T08:34:51.759Z,66.59
2017-10-07T08:39:53.710Z,66.67
2017-10-07T08:44:55.658Z,66.01
2017-10-07T08:49:57.600Z,66.07
2017-10-07T08:54:59.503Z,65.26
2017-10-07T09:00:02.207Z,65.07
2017-10-07T09:05:04.108Z,64.95
2017-10-07T09:10:06.004Z,64.22
2017-10-07T09:15:08.008Z,64.25
2017-10-07T09:20:10.693Z,64.52
2017-10-07T09:25:12.593Z,64.78
2017-10-07T09:30:14.520Z,64.34
2017-10-07T09:35:17.172Z,63.56
2017-10-07T09:40:19.100Z,63.13
2017-10-07T09:45:21.120Z,62.86
2017-10-07T09:50:23.067Z,62.87
2017-10-07T09:55:24.987Z,63.36
2017-10-07T10:00:27.685Z,62.88
2017-10-07T10:05:29.646Z,63.73
2017-10-07T10:10:31.585Z,63.38
2017-10-07T10:15:34.537Z,63.92
2017-10-07T10:20:36.477Z,65.49
2017-10-07T10:25:39.155Z,67.53
2017-10-07T10:30:41.049Z,67.62
2017-10-07T10:35:42.944Z,67.35
2017-10-07T10:40:44.850Z,68.26
2017-10-07T10:45:46.779Z,67.49
2017-10-07T10:50:48.707Z,66.43
2017-10-07T10:55:50.626Z,65.81
2017-10-07T11:00:52.600Z,65.61
2017-10-07T11:05:54.478Z,64.17
2017-10-07T11:10:57.116Z,64.71
2017-10-07T11:15:59.109Z,65.36
2017-10-07T11:21:01.179Z,66.12
2017-10-07T11:26:03.190Z,66.04
2017-10-07T11:31:05.151Z,66.42
2017-10-07T11:36:07.192Z,66.77
2017-10-07T11:41:09.163Z,67.14
2017-10-07T11:46:11.919Z,68.10
2017-10-07T11:51:14.030Z,69.23
2017-10-07T11:56:17.009Z,69.70
2017-10-07T12:01:20.153Z,70.12
2017-10-07T12:06:23.550Z,71.08
2017-10-07T12:11:26.880Z,71.71
2017-10-07T12:16:29.126Z,71.41
2017-10-07T12:21:31.112Z,71.79
2017-10-07T12:26:34.856Z,72.63
2017-10-07T12:31:36.834Z,73.09
2017-10-07T12:36:38.771Z,73.02
2017-10-07T12:41:40.715Z,73.63
2017-10-07T12:46:42.611Z,73.41
2017-10-07T12:51:45.303Z,73.26
2017-10-07T12:56:47.215Z,73.14
2017-10-07T13:01:49.978Z,73.30
2017-10-07T13:06:52.695Z,73.08
2017-10-07T13:11:54.599Z,73.53
2017-10-07T13:16:56.535Z,73.41
2017-10-07T13:21:58.510Z,73.17
2017-10-07T13:27:00.429Z,73.35
2017-10-07T13:32:03.192Z,73.96
2017-10-07T13:37:05.160Z,73.97
2017-10-07T13:42:07.079Z,74.49
2017-10-07T13:47:09.635Z,73.82
2017-10-07T13:52:13.272Z,73.87
2017-10-07T13:57:16.368Z,73.91
2017-10-07T14:02:18.733Z,74.18
2017-10-07T14:07:20.653Z,73.98
2017-10-07T14:12:23.347Z,73.06
2017-10-07T14:17:25.305Z,73.59
2017-10-07T14:22:27.242Z,73.73
2017-10-07T14:27:29.194Z,73.82
2017-10-07T14:32:31.105Z,74.27
2017-10-07T14:37:33.000Z,74.26
2017-10-07T14:42:36.379Z,74.51
2017-10-07T14:47:38.480Z,74.78
2017-10-07T14:52:41.286Z,75.05
2017-10-07T14:57:44.558Z,75.45
2017-10-07T15:02:47.096Z,75.52
2017-10-07T15:07:50.448Z,75.71
2017-10-07T15:12:52.420Z,75.80
2017-10-07T15:17:55.109Z,75.78
2017-10-07T15:22:57.151Z,75.79
2017-10-07T15:27:59.219Z,75.84
2017-10-07T15:33:01.304Z,76.44
2017-10-07T15:38:03.996Z,75.91
2017-10-07T15:43:05.939Z,75.86
2017-10-07T15:48:11.767Z,76.64
2017-10-07T15:53:14.562Z,76.31
2017-10-07T15:58:16.494Z,75.78
2017-10-07T16:03:18.599Z,75.95
2017-10-07T16:08:21.273Z,75.71
2017-10-07T16:13:23.228Z,75.47
2017-10-07T16:18:25.895Z,75.32
2017-10-07T16:23:28.559Z,74.94
2017-10-07T16:28:31.283Z,75.13
2017-10-07T16:33:33.219Z,74.71
2017-10-07T16:38:35.895Z,75.13
2017-10-07T16:43:38.459Z,75.24
2017-10-07T16:48:40.570Z,75.45
2017-10-07T16:53:42.494Z,75.01
2017-10-07T16:58:44.479Z,75.21
2017-10-07T17:03:46.538Z,74.96
2017-10-07T17:08:49.254Z,75.37
2017-10-07T17:13:51.167Z,75.24
2017-10-07T17:18:53.938Z,75.11
2017-10-07T17:23:56.627Z,75.15
2017-10-07T17:29:00.632Z,75.10
2017-10-07T17:34:02.565Z,75.74
2017-10-07T17:39:04.578Z,75.93
2017-10-07T17:44:07.882Z,75.83
2017-10-07T17:49:10.425Z,76.33
2017-10-07T17:54:14.425Z,76.08
2017-10-07T17:59:17.912Z,76.09
2017-10-07T18:04:21.788Z,76.31
2017-10-07T18:09:24.934Z,76.56
2017-10-07T18:14:28.199Z,76.33
2017-10-07T18:19:31.403Z,76.93
2017-10-07T18:24:34.950Z,77.29
2017-10-07T18:29:38.337Z,77.11
2017-10-07T18:34:41.533Z,77.27
2017-10-07T18:39:44.831Z,77.02
2017-10-07T18:50:17.359Z,77.94
2017-10-07T18:55:19.264Z,78.02
2017-10-07T19:00:22.009Z,78.18
2017-10-07T19:05:24.687Z,78.13
2017-10-07T19:10:27.334Z,78.42
2017-10-07T19:15:29.808Z,78.66
2017-10-07T19:20:33.195Z,78.71
2017-10-07T19:25:35.862Z,78.61
2017-10-07T19:30:38.535Z,78.77
2017-10-07T19:35:40.435Z,78.85
2017-10-07T19:40:42.329Z,78.94
2017-10-07T19:45:44.320Z,79.07
2017-10-07T19:50:46.215Z,79.19
2017-10-07T19:55:48.526Z,79.17
2017-10-07T20:00:50.616Z,79.05
2017-10-07T20:05:52.507Z,79.46
2017-10-07T20:10:54.762Z,79.50
2017-10-07T20:15:57.101Z,79.36
2017-10-07T20:21:00.236Z,79.32
2017-10-07T20:26:03.187Z,79.44
2017-10-07T20:31:05.092Z,79.05
2017-10-07T20:36:07.775Z,79.13
2017-10-07T20:41:09.674Z,79.08
2017-10-07T20:46:11.601Z,78.76
2017-10-07T20:51:13.559Z,79.04
2017-10-07T20:56:15.495Z,79.32
2017-10-07T21:01:17.466Z,79.30
2017-10-07T21:06:19.346Z,79.48
2017-10-07T21:11:21.998Z,79.63
2017-10-07T21:16:24.654Z,79.40
2017-10-07T21:21:28.224Z,79.46
2017-10-07T21:26:30.831Z,79.50
2017-10-07T21:31:32.766Z,79.46
2017-10-07T21:36:34.843Z,79.68
2017-10-07T21:41:36.846Z,79.76
2017-10-07T21:46:38.806Z,79.71
2017-10-07T21:51:41.600Z,79.82
2017-10-07T21:56:43.516Z,79.65
2017-10-07T22:01:46.505Z,79.08
2017-10-07T22:06:48.427Z,79.37
2017-10-07T22:11:51.163Z,79.46
2017-10-07T22:16:53.042Z,79.28
2017-10-07T22:21:55.694Z,79.09
2017-10-07T22:26:57.614Z,79.22
2017-10-07T22:31:59.527Z,79.19
2017-10-07T22:37:01.500Z,79.29
2017-10-07T22:42:03.403Z,79.27
2017-10-07T22:47:05.319Z,79.28
2017-10-07T22:52:07.906Z,79.23
2017-10-07T22:57:10.187Z,79.36
2017-10-07T23:02:12.456Z,79.12
2017-10-07T23:07:14.619Z,78.99
2017-10-07T23:12:17.058Z,78.87
2017-10-07T23:17:19.859Z,78.82
2017-10-07T23:22:33.256Z,78.85
2017-10-07T23:27:35.811Z,79.21
2017-10-07T23:32:38.885Z,78.86
2017-10-07T23:37:40.810Z,78.74
2017-10-07T23:42:42.795Z,79.03
2017-10-07T23:47:44.708Z,79.10
2017-10-07T23:52:46.629Z,78.91
2017-10-07T23:57:49.269Z,79.02
